createdAt,value
2023-05-05T00:01:20.846Z,8.85
2023-05-05T00:03:47.643Z,6.97
2023-05-05T00:06:14.804Z,7.25
2023-05-05T00:08:42.546Z,8.60
2023-05-05T00:11:09.433Z,7.20
2023-05-05T00:13:36.026Z,8.48
2023-05-05T00:16:02.558Z,7.70
2023-05-05T00:18:29.657Z,9.05
2023-05-05T00:20:56.244Z,6.85
2023-05-05T00:23:24.426Z,8.43
2023-05-05T00:25:51.295Z,8.07
2023-05-05T00:28:17.902Z,7.88
2023-05-05T00:30:45.418Z,9.57
2023-05-05T00:33:12.392Z,6.85
2023-05-05T00:35:39.045Z,10.47
2023-05-05T00:38:05.646Z,8.85
2023-05-05T00:40:32.573Z,8.35
2023-05-05T00:42:59.832Z,7.78
2023-05-05T00:45:26.457Z,8.63
2023-05-05T00:47:56.528Z,8.03
2023-05-05T00:50:31.328Z,8.10
2023-05-05T00:53:02.384Z,10.18
2023-05-05T00:55:31.074Z,8.45
2023-05-05T00:58:02.090Z,8.30
2023-05-05T01:00:30.840Z,8.10
2023-05-05T01:02:57.919Z,7.35
2023-05-05T01:05:27.982Z,7.93
2023-05-05T01:08:21.450Z,8.55
2023-05-05T01:11:01.358Z,9.45
2023-05-05T01:13:37.440Z,9.17
2023-05-05T01:16:13.993Z,9.25
2023-05-05T01:18:52.462Z,8.57
2023-05-05T01:21:27.630Z,7.82
2023-05-05T01:24:32.024Z,8.63
2023-05-05T01:27:21.222Z,7.43
2023-05-05T01:30:13.223Z,8.00
2023-05-05T01:32:46.437Z,9.27
2023-05-05T01:35:20.718Z,11.05
2023-05-05T01:37:59.543Z,8.93
2023-05-05T01:40:30.398Z,9.03
2023-05-05T01:42:58.695Z,7.75
2023-05-05T01:45:28.620Z,7.90
2023-05-05T01:47:56.613Z,8.52
2023-05-05T01:50:26.093Z,10.82
2023-05-05T01:52:54.476Z,10.50
2023-05-05T01:55:25.168Z,9.43
2023-05-05T01:57:54.321Z,9.55
2023-05-05T02:00:22.784Z,10.07
2023-05-05T02:02:50.540Z,7.82
2023-05-05T02:05:19.914Z,8.20
2023-05-05T02:07:47.014Z,8.57
2023-05-05T02:10:14.983Z,7.38
2023-05-05T02:12:43.566Z,7.80
2023-05-05T02:15:11.410Z,7.65
2023-05-05T02:17:42.360Z,8.53
2023-05-05T02:20:12.269Z,8.80
2023-05-05T02:22:38.851Z,9.27
2023-05-05T02:25:06.445Z,7.95
2023-05-05T02:27:35.922Z,8.32
2023-05-05T02:30:07.349Z,9.20
2023-05-05T02:32:37.741Z,15.98
2023-05-05T02:35:12.513Z,7.68
2023-05-05T02:37:40.689Z,8.38
2023-05-05T02:40:09.307Z,7.95
2023-05-05T02:42:39.402Z,7.97
2023-05-05T02:45:12.564Z,8.98
2023-05-05T02:47:39.137Z,8.55
2023-05-05T02:50:07.597Z,8.02
2023-05-05T02:52:35.208Z,11.02
2023-05-05T02:55:03.247Z,7.80
2023-05-05T02:57:49.025Z,8.82
2023-05-05T03:00:32.689Z,7.90
2023-05-05T03:03:16.602Z,7.70
2023-05-05T03:05:56.097Z,7.90
2023-05-05T03:08:44.429Z,8.63
2023-05-05T03:11:21.311Z,9.45
2023-05-05T03:13:51.752Z,8.45
2023-05-05T03:16:20.047Z,9.20
2023-05-05T03:18:48.610Z,9.25
2023-05-05T03:21:15.315Z,6.90
2023-05-05T03:23:42.036Z,8.75
2023-05-05T03:26:08.845Z,8.43
2023-05-05T03:28:35.386Z,8.88
2023-05-05T03:31:03.541Z,8.63
2023-05-05T03:33:30.126Z,9.67
2023-05-05T03:35:56.683Z,8.10
2023-05-05T03:38:23.278Z,9.35
2023-05-05T03:40:49.859Z,7.45
2023-05-05T03:43:16.455Z,8.38
2023-05-05T03:45:43.176Z,9.00
2023-05-05T03:48:10.183Z,8.65
2023-05-05T03:50:36.807Z,9.73
2023-05-05T03:53:03.545Z,7.70
2023-05-05T03:55:30.130Z,7.95
2023-05-05T03:57:56.785Z,7.83
2023-05-05T04:00:23.733Z,10.95
2023-05-05T04:02:50.581Z,10.15
2023-05-05T04:05:17.515Z,8.25
2023-05-05T04:07:44.050Z,9.48
2023-05-05T04:10:10.749Z,8.60
2023-05-05T04:12:37.454Z,8.50
2023-05-05T04:15:04.766Z,8.88
2023-05-05T04:17:31.343Z,8.95
2023-05-05T04:19:58.060Z,8.30
2023-05-05T04:22:24.632Z,10.53
2023-05-05T04:24:51.233Z,7.50
2023-05-05T04:27:17.846Z,7.93
2023-05-05T04:29:44.527Z,8.38
2023-05-05T04:32:11.103Z,8.40
2023-05-05T04:34:37.958Z,10.40
2023-05-05T04:37:04.541Z,9.90
2023-05-05T04:39:32.563Z,9.68
2023-05-05T04:41:59.294Z,9.40
2023-05-05T04:44:25.909Z,10.32
2023-05-05T04:46:52.564Z,9.00
2023-05-05T04:49:19.214Z,10.07
2023-05-05T04:51:46.754Z,9.00
2023-05-05T04:54:13.724Z,12.48
2023-05-05T04:56:40.300Z,8.90
2023-05-05T04:59:07.704Z,9.90
2023-05-05T05:01:35.758Z,9.15
2023-05-05T05:04:05.051Z,9.80
2023-05-05T05:06:32.387Z,11.32
2023-05-05T05:08:59.001Z,9.23
2023-05-05T05:11:25.670Z,9.53
2023-05-05T05:13:53.207Z,10.68
2023-05-05T05:16:19.873Z,10.40
2023-05-05T05:18:46.513Z,9.65
2023-05-05T05:21:13.376Z,9.23
2023-05-05T05:23:40.090Z,9.33
2023-05-05T05:26:06.628Z,9.73
2023-05-05T05:28:33.209Z,9.35
2023-05-05T05:31:00.545Z,10.65
2023-05-05T05:33:28.633Z,9.02
2023-05-05T05:35:55.166Z,9.50
2023-05-05T05:38:21.755Z,10.18
2023-05-05T05:40:48.311Z,9.18
2023-05-05T05:43:14.976Z,9.30
2023-05-05T05:45:41.739Z,9.23
2023-05-05T05:48:08.349Z,9.53
2023-05-05T05:50:36.473Z,9.93
2023-05-05T05:53:03.146Z,10.75
2023-05-05T05:55:29.859Z,16.58
2023-05-05T05:57:56.489Z,12.90
2023-05-05T06:00:23.276Z,13.80
2023-05-05T06:02:51.426Z,10.25
2023-05-05T06:05:18.433Z,10.43
2023-05-05T06:07:45.229Z,11.43
2023-05-05T06:10:26.565Z,12.70
2023-05-05T06:12:54.484Z,11.10
2023-05-05T06:15:21.178Z,10.45
2023-05-05T06:17:47.864Z,8.65
2023-05-05T06:20:14.604Z,12.23
2023-05-05T06:22:41.251Z,12.43
2023-05-05T06:25:08.324Z,13.70
2023-05-05T06:27:35.299Z,11.75
2023-05-05T06:30:01.917Z,11.40
2023-05-05T06:32:28.511Z,12.43
2023-05-05T06:34:55.277Z,10.35
2023-05-05T06:37:21.841Z,10.67
2023-05-05T06:39:49.105Z,10.32
2023-05-05T06:42:15.711Z,10.70
2023-05-05T06:44:42.254Z,9.45
2023-05-05T06:47:08.927Z,11.15
2023-05-05T06:49:35.571Z,10.60
2023-05-05T06:52:02.165Z,11.00
2023-05-05T06:54:28.758Z,12.13
2023-05-05T06:56:56.193Z,12.18
2023-05-05T06:59:23.815Z,10.32
2023-05-05T07:01:51.873Z,11.37
2023-05-05T07:04:18.892Z,9.63
2023-05-05T07:06:45.566Z,15.35
2023-05-05T07:09:13.042Z,11.15
2023-05-05T07:11:39.957Z,10.43
2023-05-05T07:14:06.602Z,11.13
2023-05-05T07:16:34.971Z,10.88
2023-05-05T07:19:01.902Z,11.32
2023-05-05T07:21:28.460Z,18.38
2023-05-05T07:23:55.477Z,14.20
2023-05-05T07:26:22.182Z,14.73
2023-05-05T07:28:48.776Z,10.48
2023-05-05T07:31:15.541Z,12.32
2023-05-05T07:33:42.430Z,12.35
2023-05-05T07:36:09.134Z,11.75
2023-05-05T07:38:35.961Z,9.37
2023-05-05T07:41:03.353Z,10.45
2023-05-05T07:43:30.048Z,10.63
2023-05-05T07:45:56.659Z,10.38
2023-05-05T07:48:23.233Z,11.57
2023-05-05T07:50:49.811Z,10.30
2023-05-05T07:53:16.383Z,13.57
2023-05-05T07:55:42.939Z,10.73
2023-05-05T07:58:11.245Z,11.73
2023-05-05T08:00:38.492Z,11.43
2023-05-05T08:03:06.235Z,11.57
2023-05-05T08:05:33.754Z,10.20
2023-05-05T08:08:00.557Z,12.13
2023-05-05T08:10:30.056Z,10.45
2023-05-05T08:12:56.884Z,11.40
2023-05-05T08:15:23.495Z,11.40
2023-05-05T08:17:52.685Z,10.00
2023-05-05T08:20:20.664Z,14.18
2023-05-05T08:22:47.829Z,11.13
2023-05-05T08:25:14.579Z,12.40
2023-05-05T08:27:42.427Z,10.67
2023-05-05T08:30:10.241Z,10.88
2023-05-05T08:32:37.204Z,10.80
2023-05-05T08:35:05.316Z,13.68
2023-05-05T08:37:32.001Z,12.75
2023-05-05T08:39:58.747Z,11.00
2023-05-05T08:42:37.273Z,14.25
2023-05-05T08:45:07.432Z,10.40
2023-05-05T08:47:36.465Z,11.82
2023-05-05T08:50:05.802Z,11.10
2023-05-05T08:52:40.468Z,11.40
2023-05-05T08:55:18.126Z,12.73
2023-05-05T08:57:53.123Z,11.85
2023-05-05T09:00:20.590Z,13.77
2023-05-05T09:02:48.037Z,11.35
2023-05-05T09:05:15.592Z,12.37
2023-05-05T09:07:44.263Z,11.50
2023-05-05T09:10:12.630Z,13.18
2023-05-05T09:12:40.599Z,14.02
2023-05-05T09:15:12.052Z,12.07
2023-05-05T09:17:39.741Z,12.97
2023-05-05T09:20:08.138Z,12.07
2023-05-05T09:22:37.947Z,10.23
2023-05-05T09:25:06.546Z,11.48
2023-05-05T09:27:38.170Z,12.13
2023-05-05T09:30:10.250Z,10.67
2023-05-05T09:32:50.795Z,11.73
2023-05-05T09:35:18.488Z,11.88
2023-05-05T09:37:45.287Z,12.88
2023-05-05T09:40:15.331Z,10.60
2023-05-05T09:42:42.441Z,8.40
2023-05-05T09:45:18.191Z,8.65
2023-05-05T09:47:47.308Z,11.43
2023-05-05T09:50:21.560Z,10.68
2023-05-05T09:52:58.848Z,10.93
2023-05-05T09:55:29.564Z,10.13
2023-05-05T09:57:56.342Z,10.85
2023-05-05T10:00:37.487Z,9.50
2023-05-05T10:03:04.495Z,9.82
2023-05-05T10:05:31.064Z,10.05
2023-05-05T10:08:13.620Z,9.00
2023-05-05T10:10:51.652Z,8.50
2023-05-05T10:13:19.936Z,10.13
2023-05-05T10:15:50.120Z,9.98
2023-05-05T10:18:21.270Z,11.15
2023-05-05T10:20:52.188Z,10.13
2023-05-05T10:23:20.939Z,8.70
2023-05-05T10:25:59.153Z,9.80
2023-05-05T10:28:33.072Z,9.18
2023-05-05T10:31:04.263Z,13.45
2023-05-05T10:34:04.257Z,10.47
2023-05-05T10:36:32.032Z,10.23
2023-05-05T10:39:00.278Z,11.55
2023-05-05T10:41:27.223Z,10.32
2023-05-05T10:43:57.475Z,9.65
2023-05-05T10:46:28.352Z,10.47
2023-05-05T10:49:04.853Z,11.93
2023-05-05T10:51:40.016Z,11.23
2023-05-05T10:54:20.979Z,11.25
2023-05-05T10:56:47.586Z,12.63
2023-05-05T10:59:36.868Z,11.97
2023-05-05T11:02:29.952Z,12.43
2023-05-05T11:05:25.959Z,11.50
2023-05-05T11:07:52.648Z,10.93
2023-05-05T11:10:20.859Z,11.90
2023-05-05T11:13:03.156Z,11.00
2023-05-05T11:15:30.316Z,14.07
2023-05-05T11:17:58.779Z,12.93
2023-05-05T11:20:40.604Z,10.90
2023-05-05T11:23:07.459Z,11.95
2023-05-05T11:25:37.832Z,15.83
2023-05-05T11:28:14.617Z,11.10
2023-05-05T11:30:57.465Z,10.60
2023-05-05T11:33:31.185Z,11.52
2023-05-05T11:35:59.472Z,11.77
2023-05-05T11:38:53.851Z,10.97
2023-05-05T11:41:26.140Z,9.25
2023-05-05T11:44:17.298Z,9.38
2023-05-05T11:46:54.024Z,9.85
2023-05-05T11:49:31.862Z,11.07
2023-05-05T11:52:08.020Z,9.50
2023-05-05T11:54:36.356Z,10.90
2023-05-05T11:57:05.656Z,7.97
2023-05-05T11:59:50.239Z,9.13
2023-05-05T12:02:18.248Z,8.90
2023-05-05T12:04:45.543Z,10.00
2023-05-05T12:07:20.216Z,12.48
2023-05-05T12:09:49.592Z,9.73
2023-05-05T12:12:17.178Z,11.30
2023-05-05T12:14:47.950Z,10.88
2023-05-05T12:17:14.603Z,9.80
2023-05-05T12:20:09.139Z,11.07
2023-05-05T12:22:36.519Z,10.77
2023-05-05T12:25:08.230Z,9.30
2023-05-05T12:27:38.945Z,11.57
2023-05-05T12:30:16.874Z,5.83
2023-05-05T12:32:44.198Z,7.18
2023-05-05T12:35:12.403Z,5.72
2023-05-05T12:37:39.297Z,7.10
2023-05-05T12:40:07.323Z,6.78
2023-05-05T12:42:39.067Z,7.13
2023-05-05T12:45:07.373Z,6.80
2023-05-05T12:47:34.400Z,6.90
2023-05-05T12:50:03.245Z,7.57
2023-05-05T12:52:51.933Z,6.22
2023-05-05T12:55:19.867Z,6.77
2023-05-05T12:58:04.726Z,7.57
2023-05-05T13:00:31.785Z,5.47
2023-05-05T13:02:58.675Z,5.28
2023-05-05T13:05:41.131Z,4.60
2023-05-05T13:08:07.797Z,5.33
2023-05-05T13:10:34.504Z,6.25
2023-05-05T13:13:01.088Z,7.47
2023-05-05T13:15:28.295Z,6.32
2023-05-05T13:18:01.711Z,6.90
2023-05-05T13:20:29.028Z,6.00
2023-05-05T13:22:55.681Z,4.35
2023-05-05T13:25:22.539Z,5.50
2023-05-05T13:27:49.178Z,5.15
2023-05-05T13:30:16.064Z,4.45
2023-05-05T13:32:42.699Z,4.60
2023-05-05T13:35:09.480Z,5.03
2023-05-05T13:37:36.594Z,4.20
2023-05-05T13:40:03.735Z,5.57
2023-05-05T13:42:30.305Z,4.82
2023-05-05T13:44:56.837Z,5.53
2023-05-05T13:47:23.560Z,4.88
2023-05-05T13:49:50.223Z,5.18
2023-05-05T13:52:16.788Z,5.72
2023-05-05T13:54:43.431Z,6.97
2023-05-05T13:57:11.224Z,5.60
2023-05-05T13:59:37.967Z,4.25
2023-05-05T14:02:05.572Z,6.47
2023-05-05T14:04:32.301Z,4.28
2023-05-05T14:06:58.990Z,5.03
2023-05-05T14:09:26.076Z,7.27
2023-05-05T14:11:52.629Z,5.10
2023-05-05T14:14:19.784Z,5.00
2023-05-05T14:16:48.663Z,4.00
2023-05-05T14:19:16.780Z,5.25
2023-05-05T14:21:43.318Z,5.30
2023-05-05T14:24:10.063Z,4.60
2023-05-05T14:26:36.625Z,6.90
2023-05-05T14:29:03.831Z,5.68
2023-05-05T14:31:30.649Z,7.70
2023-05-05T14:33:57.214Z,6.80
2023-05-05T14:36:23.868Z,6.90
2023-05-05T14:38:50.704Z,6.40
2023-05-05T14:41:17.311Z,6.97
2023-05-05T14:43:43.919Z,7.45
2023-05-05T14:46:10.889Z,7.73
2023-05-05T14:48:37.777Z,8.32
2023-05-05T14:51:04.867Z,8.00
2023-05-05T14:53:31.551Z,6.68
2023-05-05T14:55:58.358Z,8.75
2023-05-05T14:58:25.244Z,8.47
2023-05-05T15:00:53.004Z,6.20
2023-05-05T15:03:19.670Z,6.22
2023-05-05T15:05:46.624Z,7.03
2023-05-05T15:08:14.627Z,6.65
2023-05-05T15:10:41.545Z,7.53
2023-05-05T15:13:08.108Z,7.63
2023-05-05T15:15:35.753Z,6.35
2023-05-05T15:18:02.402Z,7.50
2023-05-05T15:20:29.162Z,8.77
2023-05-05T15:22:55.867Z,7.70
2023-05-05T15:25:22.473Z,7.75
2023-05-05T15:27:49.509Z,8.35
2023-05-05T15:30:16.196Z,8.43
2023-05-05T15:32:43.028Z,7.97
2023-05-05T15:35:09.820Z,7.43
2023-05-05T15:37:37.969Z,8.63
2023-05-05T15:40:05.656Z,6.07
2023-05-05T15:42:33.915Z,9.40
2023-05-05T15:45:04.777Z,8.07
2023-05-05T15:47:31.530Z,7.13
2023-05-05T15:49:58.121Z,6.72
2023-05-05T15:52:24.698Z,7.80
2023-05-05T15:54:51.268Z,7.07
2023-05-05T15:57:17.874Z,6.35
2023-05-05T15:59:44.604Z,9.00
2023-05-05T16:02:11.626Z,6.75
2023-05-05T16:04:38.171Z,6.47
2023-05-05T16:07:04.675Z,7.22
2023-05-05T16:09:31.286Z,7.95
2023-05-05T16:11:57.866Z,9.80
2023-05-05T16:14:24.987Z,7.70
2023-05-05T16:16:51.570Z,8.50
2023-05-05T16:19:18.301Z,9.40
2023-05-05T16:21:45.070Z,8.43
2023-05-05T16:24:16.196Z,6.67
2023-05-05T16:26:43.751Z,8.25
2023-05-05T16:29:10.672Z,6.95
2023-05-05T16:31:37.743Z,6.97
2023-05-05T16:34:04.682Z,6.68
2023-05-05T16:36:31.403Z,7.23
2023-05-05T16:38:58.866Z,26.95
2023-05-05T16:41:26.485Z,7.20
2023-05-05T16:43:55.809Z,8.32
2023-05-05T16:46:22.463Z,8.30
2023-05-05T16:48:49.214Z,11.57
2023-05-05T16:51:15.824Z,7.90
2023-05-05T16:53:42.448Z,8.45
2023-05-05T16:56:13.224Z,6.97
2023-05-05T16:58:40.344Z,8.73
2023-05-05T17:01:07.004Z,8.60
2023-05-05T17:03:34.670Z,7.88
2023-05-05T17:06:01.289Z,6.90
2023-05-05T17:08:27.978Z,8.63
2023-05-05T17:10:54.591Z,9.27
2023-05-05T17:13:23.123Z,9.33
2023-05-05T17:15:52.693Z,10.73
2023-05-05T17:18:21.291Z,9.73
2023-05-05T17:20:49.233Z,8.80
2023-05-05T17:23:16.797Z,8.25
2023-05-05T17:25:43.429Z,10.23
2023-05-05T17:28:11.355Z,8.00
2023-05-05T17:30:37.949Z,10.57
2023-05-05T17:33:04.751Z,7.93
2023-05-05T17:35:33.360Z,8.02
2023-05-05T17:38:00.047Z,11.87
2023-05-05T17:40:26.776Z,9.98
2023-05-05T17:42:53.332Z,10.13
2023-05-05T17:45:19.978Z,10.70
2023-05-05T17:47:46.622Z,9.30
2023-05-05T17:50:13.163Z,10.97
2023-05-05T17:52:41.200Z,10.18
2023-05-05T17:55:08.544Z,8.27
2023-05-05T17:57:35.679Z,8.45
2023-05-05T18:00:06.857Z,7.88
2023-05-05T18:02:36.887Z,10.17
2023-05-05T18:05:04.309Z,7.80
2023-05-05T18:07:30.904Z,9.05
2023-05-05T18:09:57.822Z,9.50
2023-05-05T18:12:24.377Z,8.80
2023-05-05T18:14:52.049Z,10.67
2023-05-05T18:17:18.639Z,9.07
2023-05-05T18:19:47.243Z,8.82
2023-05-05T18:22:15.637Z,9.05
2023-05-05T18:24:42.277Z,8.43
2023-05-05T18:27:09.066Z,7.90
2023-05-05T18:29:36.302Z,7.18
2023-05-05T18:32:02.909Z,7.35
2023-05-05T18:34:29.728Z,9.32
2023-05-05T18:36:57.257Z,9.43
2023-05-05T18:39:24.244Z,11.33
2023-05-05T18:41:50.829Z,9.73
2023-05-05T18:44:18.689Z,9.70
2023-05-05T18:46:47.186Z,9.63
2023-05-05T18:49:13.841Z,9.48
2023-05-05T18:51:40.843Z,10.20
2023-05-05T18:54:07.658Z,12.57
2023-05-05T18:56:34.430Z,11.73
2023-05-05T18:59:00.967Z,12.30
2023-05-05T19:01:27.640Z,10.85
2023-05-05T19:03:54.306Z,10.90
2023-05-05T19:06:21.169Z,8.18
2023-05-05T19:08:49.064Z,9.95
2023-05-05T19:11:15.999Z,10.90
2023-05-05T19:13:42.913Z,9.32
2023-05-05T19:16:11.517Z,11.03
2023-05-05T19:18:38.836Z,10.52
2023-05-05T19:21:05.721Z,8.27
2023-05-05T19:23:32.384Z,7.97
2023-05-05T19:25:59.006Z,8.85
2023-05-05T19:28:25.579Z,8.93
2023-05-05T19:30:52.393Z,10.68
2023-05-05T19:33:19.003Z,10.43
2023-05-05T19:35:45.605Z,9.23
2023-05-05T19:38:12.382Z,9.90
2023-05-05T19:40:40.053Z,8.43
2023-05-05T19:43:07.269Z,13.57
2023-05-05T19:45:34.110Z,7.63
2023-05-05T19:48:01.745Z,9.65
2023-05-05T19:50:30.625Z,10.45
2023-05-05T19:52:57.577Z,9.83
2023-05-05T19:55:27.230Z,13.45
2023-05-05T19:57:54.142Z,12.07
2023-05-05T20:00:20.789Z,12.82
2023-05-05T20:02:49.226Z,13.60
2023-05-05T20:05:17.960Z,13.20
2023-05-05T20:07:46.442Z,13.90
2023-05-05T20:10:16.798Z,12.82
2023-05-05T20:12:49.073Z,13.43
2023-05-05T20:15:18.911Z,14.82
2023-05-05T20:17:47.164Z,12.80
2023-05-05T20:20:19.046Z,13.95
2023-05-05T20:22:47.591Z,16.15
2023-05-05T20:25:16.308Z,15.20
2023-05-05T20:27:43.638Z,15.80
2023-05-05T20:30:10.951Z,16.70
2023-05-05T20:32:38.246Z,21.02
2023-05-05T20:35:06.226Z,16.33
2023-05-05T20:37:32.837Z,16.17
2023-05-05T20:39:59.438Z,18.42
2023-05-05T20:42:26.473Z,15.40
2023-05-05T20:44:53.234Z,17.98
2023-05-05T20:47:19.930Z,19.88
2023-05-05T20:49:46.641Z,12.80
2023-05-05T20:52:13.374Z,12.55
2023-05-05T20:54:39.937Z,11.70
2023-05-05T20:57:09.614Z,11.27
2023-05-05T20:59:37.636Z,13.90
2023-05-05T21:02:04.692Z,11.40
2023-05-05T21:04:31.392Z,11.95
2023-05-05T21:06:58.377Z,12.50
2023-05-05T21:09:25.030Z,11.43
2023-05-05T21:11:51.653Z,12.55
2023-05-05T21:14:18.231Z,15.43
2023-05-05T21:16:44.880Z,13.32
2023-05-05T21:19:11.468Z,13.17
2023-05-05T21:21:38.059Z,12.80
2023-05-05T21:24:08.036Z,13.10
2023-05-05T21:26:34.749Z,11.73
2023-05-05T21:29:01.646Z,15.70
2023-05-05T21:31:28.237Z,13.20
2023-05-05T21:33:54.871Z,13.23
2023-05-05T21:36:21.479Z,14.43
2023-05-05T21:38:49.606Z,13.02
2023-05-05T21:41:16.935Z,17.88
2023-05-05T21:43:43.576Z,14.80
2023-05-05T21:46:10.480Z,13.25
2023-05-05T21:48:39.002Z,13.63
2023-05-05T21:51:06.828Z,14.48
2023-05-05T21:53:33.421Z,17.25
2023-05-05T21:55:59.938Z,17.63
2023-05-05T21:58:26.610Z,18.88
2023-05-05T22:00:53.272Z,15.23
2023-05-05T22:03:20.005Z,17.35
2023-05-05T22:05:47.059Z,13.88
2023-05-05T22:08:13.595Z,16.20
2023-05-05T22:10:40.210Z,15.43
2023-05-05T22:13:06.894Z,16.63
2023-05-05T22:15:45.397Z,16.58
2023-05-05T22:18:13.579Z,11.95
2023-05-05T22:20:40.773Z,11.03
2023-05-05T22:23:07.463Z,11.73
2023-05-05T22:25:34.113Z,11.10
2023-05-05T22:28:03.686Z,11.55
2023-05-05T22:30:30.313Z,11.05
2023-05-05T22:32:56.951Z,9.90
2023-05-05T22:35:23.793Z,9.38
2023-05-05T22:37:50.397Z,11.52
2023-05-05T22:40:17.075Z,10.48
2023-05-05T22:42:43.748Z,9.05
2023-05-05T22:45:11.012Z,10.73
2023-05-05T22:47:37.898Z,11.00
2023-05-05T22:50:04.664Z,10.23
2023-05-05T22:52:31.615Z,11.25
2023-05-05T22:54:58.149Z,10.43
2023-05-05T22:57:24.796Z,9.63
2023-05-05T22:59:51.700Z,11.40
2023-05-05T23:02:18.324Z,13.98
2023-05-05T23:04:45.150Z,12.27
2023-05-05T23:07:13.181Z,13.30
2023-05-05T23:09:40.846Z,13.20
2023-05-05T23:12:07.391Z,13.10
2023-05-05T23:14:34.004Z,12.05
2023-05-05T23:17:01.025Z,13.68
2023-05-05T23:19:29.189Z,12.32
2023-05-05T23:21:55.838Z,13.23
2023-05-05T23:24:22.433Z,13.35
2023-05-05T23:26:49.071Z,11.90
2023-05-05T23:29:15.835Z,15.77
2023-05-05T23:31:42.608Z,12.82
2023-05-05T23:34:09.323Z,11.13
2023-05-05T23:36:35.852Z,13.00
2023-05-05T23:39:02.413Z,13.15
2023-05-05T23:41:28.979Z,12.32
2023-05-05T23:43:56.412Z,11.75
2023-05-05T23:46:24.172Z,13.17
2023-05-05T23:48:51.245Z,16.10
2023-05-05T23:51:18.008Z,15.57
2023-05-05T23:53:44.608Z,16.75
2023-05-05T23:56:11.860Z,15.65
2023-05-05T23:58:38.559Z,14.57
